createdAt,value
2022-09-10T00:01:37.014Z,2.45
2022-09-10T00:04:12.306Z,2.63
2022-09-10T00:06:41.002Z,2.20
2022-09-10T00:09:10.664Z,2.28
2022-09-10T00:11:41.748Z,2.55
2022-09-10T00:14:20.605Z,3.00
2022-09-10T00:16:49.722Z,2.60
2022-09-10T00:19:19.522Z,2.85
2022-09-10T00:21:46.676Z,2.67
2022-09-10T00:24:14.519Z,2.47
2022-09-10T00:26:42.343Z,2.63
2022-09-10T00:29:15.200Z,3.22
2022-09-10T00:31:42.707Z,3.35
2022-09-10T00:34:14.067Z,3.03
2022-09-10T00:36:44.025Z,2.70
2022-09-10T00:39:18.979Z,3.40
2022-09-10T00:41:49.118Z,3.33
2022-09-10T00:44:38.616Z,3.33
2022-09-10T00:47:18.795Z,3.15
2022-09-10T00:49:57.649Z,3.47
2022-09-10T00:52:25.905Z,3.20
2022-09-10T00:54:53.351Z,3.00
2022-09-10T00:57:24.491Z,2.78
2022-09-10T01:00:03.353Z,3.35
2022-09-10T01:02:30.355Z,3.40
2022-09-10T01:04:58.347Z,3.08
2022-09-10T01:10:03.576Z,3.40
2022-09-10T01:13:25.609Z,3.50
2022-09-10T01:16:54.673Z,3.10
2022-09-10T01:20:09.335Z,3.50
2022-09-10T01:23:48.132Z,3.28
2022-09-10T01:26:47.532Z,3.53
2022-09-10T01:29:40.951Z,3.40
2022-09-10T01:32:35.171Z,3.30
2022-09-10T01:35:54.577Z,3.60
2022-09-10T01:38:38.580Z,3.38
2022-09-10T01:41:06.042Z,3.15
2022-09-10T01:43:33.858Z,3.70
2022-09-10T01:46:45.534Z,3.38
2022-09-10T01:49:52.991Z,3.03
2022-09-10T01:52:51.656Z,3.42
2022-09-10T01:55:56.668Z,3.28
2022-09-10T01:58:41.549Z,3.10
2022-09-10T02:01:39.758Z,3.60
2022-09-10T02:04:14.972Z,3.15
2022-09-10T02:06:50.988Z,3.30
2022-09-10T02:09:20.036Z,2.83
2022-09-10T02:11:53.718Z,3.13
2022-09-10T02:14:23.359Z,2.88
2022-09-10T02:16:59.413Z,2.70
2022-09-10T02:19:27.998Z,2.88
2022-09-10T02:21:58.758Z,2.47
2022-09-10T02:24:25.810Z,2.85
2022-09-10T02:26:53.228Z,3.00
2022-09-10T02:29:20.422Z,3.10
2022-09-10T02:31:47.613Z,2.85
2022-09-10T02:34:16.122Z,3.35
2022-09-10T02:36:43.581Z,3.20
2022-09-10T02:39:10.537Z,2.85
2022-09-10T02:41:40.886Z,3.00
2022-09-10T02:44:08.766Z,3.30
2022-09-10T02:46:35.765Z,3.55
2022-09-10T02:49:03.191Z,4.15
2022-09-10T02:51:30.558Z,3.28
2022-09-10T02:53:57.757Z,2.90
2022-09-10T02:56:24.962Z,3.08
2022-09-10T02:58:52.203Z,3.30
2022-09-10T03:01:23.024Z,3.20
2022-09-10T03:03:58.281Z,3.13
2022-09-10T03:06:27.404Z,2.78
2022-09-10T03:08:55.536Z,3.17
2022-09-10T03:11:27.722Z,2.97
2022-09-10T03:13:55.808Z,3.33
2022-09-10T03:18:52.125Z,3.30
2022-09-10T03:21:25.175Z,3.05
2022-09-10T03:23:56.870Z,3.85
2022-09-10T03:26:25.598Z,3.13
2022-09-10T03:28:53.373Z,3.17
2022-09-10T03:31:21.821Z,3.90
2022-09-10T03:33:49.329Z,3.17
2022-09-10T03:36:18.026Z,3.42
2022-09-10T03:38:45.393Z,3.45
2022-09-10T03:41:12.549Z,3.45
2022-09-10T03:43:39.591Z,3.00
2022-09-10T03:46:06.793Z,3.22
2022-09-10T03:48:34.757Z,2.90
2022-09-10T03:51:01.783Z,2.92
2022-09-10T03:53:28.776Z,2.92
2022-09-10T03:55:56.393Z,2.95
2022-09-10T03:58:23.475Z,2.78
2022-09-10T04:00:50.527Z,2.97
2022-09-10T04:03:17.893Z,3.10
2022-09-10T04:05:44.839Z,2.88
2022-09-10T04:08:14.955Z,3.53
2022-09-10T04:10:46.925Z,2.58
2022-09-10T04:13:14.708Z,2.72
2022-09-10T04:15:46.308Z,3.00
2022-09-10T04:18:14.642Z,2.85
2022-09-10T04:20:43.619Z,2.97
2022-09-10T04:23:10.674Z,3.08
2022-09-10T04:25:37.621Z,3.35
2022-09-10T04:28:04.592Z,2.92
2022-09-10T04:30:31.604Z,3.70
2022-09-10T04:32:58.529Z,3.42
2022-09-10T04:35:26.859Z,3.13
2022-09-10T04:37:53.846Z,2.92
2022-09-10T04:40:20.862Z,3.10
2022-09-10T04:42:47.850Z,2.95
2022-09-10T04:45:15.182Z,2.90
2022-09-10T04:47:42.163Z,3.60
2022-09-10T04:50:09.986Z,3.10
2022-09-10T04:52:37.024Z,2.97
2022-09-10T04:55:04.902Z,3.22
2022-09-10T04:57:31.940Z,3.38
2022-09-10T04:59:59.046Z,3.20
2022-09-10T05:02:26.102Z,3.35
2022-09-10T05:04:53.360Z,3.53
2022-09-10T05:07:20.312Z,3.25
2022-09-10T05:09:47.378Z,3.08
2022-09-10T05:12:16.960Z,3.17
2022-09-10T05:14:43.927Z,3.55
2022-09-10T05:17:11.317Z,3.35
2022-09-10T05:19:38.255Z,3.17
2022-09-10T05:22:05.241Z,2.80
2022-09-10T05:24:34.413Z,3.15
2022-09-10T05:27:01.429Z,3.38
2022-09-10T05:29:28.394Z,3.38
2022-09-10T05:31:55.419Z,3.40
2022-09-10T05:34:22.545Z,3.23
2022-09-10T05:36:49.473Z,3.10
2022-09-10T05:39:16.788Z,3.30
2022-09-10T05:41:44.287Z,2.97
2022-09-10T05:44:11.262Z,3.78
2022-09-10T05:46:38.208Z,3.40
2022-09-10T05:49:05.149Z,3.25
2022-09-10T05:51:32.105Z,3.53
2022-09-10T05:53:59.101Z,3.50
2022-09-10T05:56:27.130Z,3.60
2022-09-10T06:01:21.120Z,3.70
2022-09-10T06:03:48.644Z,3.53
2022-09-10T06:06:15.718Z,3.35
2022-09-10T06:08:43.311Z,3.43
2022-09-10T06:11:12.109Z,3.25
2022-09-10T06:13:42.342Z,3.92
2022-09-10T06:16:09.903Z,3.03
2022-09-10T06:18:37.220Z,2.97
2022-09-10T06:21:16.283Z,3.17
2022-09-10T06:23:45.476Z,3.20
2022-09-10T06:26:17.275Z,2.92
2022-09-10T06:28:44.870Z,2.90
2022-09-10T06:31:17.248Z,3.60
2022-09-10T06:33:45.141Z,3.03
2022-09-10T06:36:12.753Z,3.78
2022-09-10T06:38:41.571Z,2.90
2022-09-10T06:41:16.430Z,3.05
2022-09-10T06:43:43.848Z,2.85
2022-09-10T06:47:01.655Z,2.80
2022-09-10T06:49:11.772Z,3.17
2022-09-10T06:51:39.877Z,2.80
2022-09-10T06:54:09.602Z,2.80
2022-09-10T06:56:36.606Z,2.67
2022-09-10T06:59:03.647Z,2.27
2022-09-10T07:01:30.846Z,2.17
2022-09-10T07:04:01.558Z,2.20
2022-09-10T07:06:34.882Z,2.13
2022-09-10T07:09:04.263Z,2.40
2022-09-10T07:11:32.242Z,2.17
2022-09-10T07:19:00.339Z,2.08
2022-09-10T07:21:29.183Z,2.10
2022-09-10T07:24:01.331Z,2.15
2022-09-10T07:26:29.793Z,2.45
2022-09-10T07:28:59.700Z,1.98
2022-09-10T07:31:34.006Z,2.35
2022-09-10T07:34:05.203Z,2.38
2022-09-10T07:36:32.914Z,2.30
2022-09-10T07:39:01.887Z,2.05
2022-09-10T07:41:30.991Z,2.10
2022-09-10T07:43:58.777Z,2.25
2022-09-10T07:46:28.018Z,1.60
2022-09-10T07:49:01.361Z,1.95
2022-09-10T07:51:30.828Z,1.70
2022-09-10T07:53:59.666Z,2.10
2022-09-10T07:56:27.305Z,2.00
2022-09-10T07:58:57.047Z,2.05
2022-09-10T08:01:24.311Z,2.22
2022-09-10T08:03:51.439Z,1.65
2022-09-10T08:06:18.451Z,1.95
2022-09-10T08:08:45.394Z,2.05
2022-09-10T08:11:17.597Z,1.90
2022-09-10T08:13:52.048Z,2.53
2022-09-10T08:16:24.936Z,2.30
2022-09-10T08:18:52.242Z,2.17
2022-09-10T08:21:21.022Z,1.88
2022-09-10T08:23:55.304Z,1.60
2022-09-10T08:26:27.483Z,2.10
2022-09-10T08:28:57.930Z,1.73
2022-09-10T08:31:26.634Z,1.88
2022-09-10T08:33:56.892Z,1.40
2022-09-10T08:36:25.755Z,1.67
2022-09-10T08:38:59.888Z,1.73
2022-09-10T08:41:38.432Z,2.00
2022-09-10T08:45:12.169Z,1.75
2022-09-10T08:48:22.397Z,1.85
2022-09-10T08:51:13.714Z,2.10
2022-09-10T08:54:07.450Z,1.75
2022-09-10T08:56:35.416Z,1.83
2022-09-10T08:59:22.433Z,2.05
2022-09-10T09:02:05.608Z,1.67
2022-09-10T09:04:50.663Z,1.92
2022-09-10T09:07:21.404Z,1.52
2022-09-10T09:09:52.537Z,1.65
2022-09-10T09:12:53.530Z,1.50
2022-09-10T09:16:11.359Z,1.67
2022-09-10T09:19:03.514Z,2.08
2022-09-10T09:22:12.095Z,2.10
2022-09-10T09:25:21.722Z,1.77
2022-09-10T09:27:56.445Z,1.55
2022-09-10T09:30:49.255Z,1.50
2022-09-10T09:33:25.088Z,1.73
2022-09-10T09:36:04.647Z,1.52
2022-09-10T09:38:49.065Z,1.38
2022-09-10T09:41:50.989Z,1.50
2022-09-10T09:44:46.599Z,1.50
2022-09-10T09:47:13.599Z,1.73
2022-09-10T09:49:41.234Z,1.95
2022-09-10T09:52:24.747Z,1.80
2022-09-10T09:55:15.753Z,1.52
2022-09-10T09:57:43.248Z,1.63
2022-09-10T10:00:38.072Z,1.40
2022-09-10T10:03:24.482Z,1.40
2022-09-10T10:06:08.720Z,1.52
2022-09-10T10:08:56.428Z,1.60
2022-09-10T10:11:52.425Z,1.45
2022-09-10T10:14:20.175Z,1.15
2022-09-10T10:22:15.159Z,1.55
2022-09-10T10:24:45.459Z,1.40
2022-09-10T10:27:42.746Z,1.35
2022-09-10T10:30:18.400Z,1.50
2022-09-10T10:33:03.434Z,1.90
2022-09-10T10:36:02.649Z,1.48
2022-09-10T10:38:55.492Z,1.58
2022-09-10T10:41:52.956Z,1.65
2022-09-10T10:45:23.228Z,1.15
2022-09-10T10:48:11.885Z,1.40
2022-09-10T10:51:18.114Z,1.40
2022-09-10T10:54:54.395Z,1.80
2022-09-10T10:57:48.729Z,1.63
2022-09-10T11:00:20.993Z,1.80
2022-09-10T11:03:16.086Z,1.40
2022-09-10T11:06:00.845Z,1.65
2022-09-10T11:09:08.060Z,1.52
2022-09-10T11:12:12.753Z,1.30
2022-09-10T11:15:20.379Z,1.52
2022-09-10T11:18:06.276Z,1.40
2022-09-10T11:20:45.885Z,1.77
2022-09-10T11:23:41.878Z,2.63
2022-09-10T11:26:24.238Z,1.33
2022-09-10T11:30:00.706Z,1.30
2022-09-10T11:33:05.043Z,1.50
2022-09-10T11:36:10.964Z,1.60
2022-09-10T11:39:03.974Z,1.30
2022-09-10T11:41:35.903Z,1.05
2022-09-10T11:45:03.028Z,1.30
2022-09-10T11:47:47.716Z,1.20
2022-09-10T11:50:47.138Z,1.20
2022-09-10T11:53:23.312Z,1.58
2022-09-10T11:56:35.947Z,1.10
2022-09-10T11:59:40.932Z,1.50
2022-09-10T12:02:43.720Z,0.93
2022-09-10T12:05:54.892Z,1.50
2022-09-10T12:08:46.878Z,1.23
2022-09-10T12:11:32.101Z,1.40
2022-09-10T12:14:06.275Z,1.30
2022-09-10T12:17:08.789Z,1.30
2022-09-10T12:19:51.639Z,1.20
2022-09-10T12:22:42.157Z,1.20
2022-09-10T12:25:34.577Z,1.10
2022-09-10T12:28:43.227Z,1.25
2022-09-10T12:31:15.235Z,1.27
2022-09-10T12:33:44.814Z,0.90
2022-09-10T12:36:34.798Z,1.10
2022-09-10T12:39:25.520Z,0.80
2022-09-10T12:41:53.165Z,1.15
2022-09-10T12:44:36.131Z,0.90
2022-09-10T12:47:15.397Z,0.80
2022-09-10T12:49:56.238Z,0.90
2022-09-10T12:52:48.888Z,1.00
2022-09-10T12:55:48.559Z,0.95
2022-09-10T13:01:32.180Z,1.00
2022-09-10T13:04:02.531Z,1.10
2022-09-10T13:07:05.698Z,1.30
2022-09-10T13:09:40.181Z,1.02
2022-09-10T13:12:23.880Z,1.30
2022-09-10T13:14:57.780Z,1.38
2022-09-10T13:18:09.729Z,1.50
2022-09-10T13:20:36.981Z,1.08
2022-09-10T13:23:44.183Z,1.20
2022-09-10T13:26:31.547Z,1.05
2022-09-10T13:29:00.786Z,0.88
2022-09-10T13:31:36.571Z,1.13
2022-09-10T13:34:15.439Z,1.10
2022-09-10T13:36:45.476Z,0.80
2022-09-10T13:39:46.215Z,1.00
2022-09-10T13:42:50.491Z,1.00
2022-09-10T13:45:53.688Z,1.08
2022-09-10T13:48:34.704Z,1.13
2022-09-10T13:51:36.844Z,0.98
2022-09-10T13:54:53.409Z,1.15
2022-09-10T13:57:30.889Z,1.10
2022-09-10T14:00:17.808Z,1.10
2022-09-10T14:02:56.342Z,1.08
2022-09-10T14:05:35.411Z,1.20
2022-09-10T14:08:17.946Z,1.27
2022-09-10T14:10:53.152Z,1.08
2022-09-10T14:13:55.507Z,1.23
2022-09-10T14:16:57.167Z,1.27
2022-09-10T14:19:54.740Z,0.93
2022-09-10T14:22:25.348Z,1.20
2022-09-10T14:25:04.259Z,1.35
2022-09-10T14:27:41.573Z,1.20
2022-09-10T14:30:23.307Z,1.10
2022-09-10T14:32:53.020Z,1.00
2022-09-10T14:35:47.145Z,0.90
2022-09-10T14:38:37.145Z,1.00
2022-09-10T14:41:23.144Z,0.95
2022-09-10T14:44:11.478Z,1.70
2022-09-10T14:46:58.940Z,0.90
2022-09-10T14:49:28.905Z,1.00
2022-09-10T14:51:58.838Z,1.30
2022-09-10T14:54:33.861Z,1.27
2022-09-10T14:57:15.256Z,1.35
2022-09-10T14:59:48.960Z,1.17
2022-09-10T15:02:36.222Z,1.70
2022-09-10T15:05:03.372Z,1.40
2022-09-10T15:07:30.337Z,1.10
2022-09-10T15:09:57.345Z,1.25
2022-09-10T15:12:32.687Z,0.93
2022-09-10T15:14:59.822Z,1.55
2022-09-10T15:17:27.264Z,1.30
2022-09-10T15:19:56.061Z,1.23
2022-09-10T15:22:31.719Z,1.13
2022-09-10T15:25:09.571Z,1.30
2022-09-10T15:27:37.468Z,1.13
2022-09-10T15:30:05.865Z,1.30
2022-09-10T15:32:33.092Z,1.65
2022-09-10T15:35:00.021Z,1.60
2022-09-10T15:37:27.157Z,7.35
2022-09-10T15:39:54.747Z,1.85
2022-09-10T15:42:22.514Z,1.90
2022-09-10T15:44:49.515Z,1.55
2022-09-10T15:47:16.625Z,1.50
2022-09-10T15:49:43.661Z,7.57
2022-09-10T15:52:10.671Z,2.15
2022-09-10T15:54:37.767Z,2.33
2022-09-10T15:57:04.997Z,4.50
2022-09-10T15:59:32.144Z,1.90
2022-09-10T16:01:59.089Z,1.80
2022-09-10T16:04:28.014Z,1.65
2022-09-10T16:06:56.171Z,1.95
2022-09-10T16:09:23.163Z,1.98
2022-09-10T16:11:50.148Z,1.77
2022-09-10T16:14:18.593Z,1.80
2022-09-10T16:16:45.830Z,1.73
2022-09-10T16:19:14.050Z,1.88
2022-09-10T16:21:41.464Z,1.75
2022-09-10T16:24:09.823Z,2.60
2022-09-10T16:26:43.645Z,2.20
2022-09-10T16:29:19.538Z,2.05
2022-09-10T16:31:46.615Z,2.08
2022-09-10T16:34:19.542Z,2.28
2022-09-10T16:36:49.414Z,2.38
2022-09-10T16:39:19.435Z,2.05
2022-09-10T16:41:50.824Z,2.50
2022-09-10T16:44:19.382Z,2.45
2022-09-10T16:46:47.383Z,2.60
2022-09-10T16:49:18.470Z,2.75
2022-09-10T16:51:49.218Z,2.72
2022-09-10T16:54:20.114Z,2.72
2022-09-10T16:56:49.148Z,2.97
2022-09-10T16:59:23.511Z,2.85
2022-09-10T17:01:52.642Z,3.00
2022-09-10T17:04:28.347Z,3.20
2022-09-10T17:06:58.142Z,3.25
2022-09-10T17:09:25.620Z,2.95
2022-09-10T17:11:53.342Z,2.90
2022-09-10T17:14:20.342Z,3.35
2022-09-10T17:16:48.442Z,3.15
2022-09-10T17:19:23.851Z,3.38
2022-09-10T17:21:55.725Z,2.97
2022-09-10T17:24:26.790Z,3.13
2022-09-10T17:26:55.438Z,3.40
2022-09-10T17:29:26.292Z,3.60
2022-09-10T17:31:55.515Z,3.38
2022-09-10T17:34:24.743Z,3.58
2022-09-10T17:36:52.002Z,3.50
2022-09-10T17:39:19.644Z,3.30
2022-09-10T17:41:47.905Z,2.90
2022-09-10T17:44:16.768Z,3.55
2022-09-10T17:46:45.070Z,3.35
2022-09-10T17:49:16.149Z,3.85
2022-09-10T17:51:43.960Z,3.60
2022-09-10T17:56:38.380Z,3.67
2022-09-10T17:59:06.787Z,3.83
2022-09-10T18:01:39.157Z,3.63
2022-09-10T18:04:12.628Z,3.63
2022-09-10T18:06:40.934Z,4.00
2022-09-10T18:09:08.777Z,3.83
2022-09-10T18:14:08.631Z,4.07
2022-09-10T18:16:38.005Z,3.83
2022-09-10T18:19:16.010Z,4.15
2022-09-10T18:21:47.278Z,3.75
2022-09-10T18:24:25.108Z,3.47
2022-09-10T18:26:54.835Z,4.18
2022-09-10T18:29:30.114Z,3.60
2022-09-10T18:32:02.970Z,4.18
2022-09-10T18:34:31.548Z,3.85
2022-09-10T18:37:02.622Z,4.25
2022-09-10T18:39:33.171Z,4.30
2022-09-10T18:42:01.366Z,3.50
2022-09-10T18:44:34.202Z,4.20
2022-09-10T18:47:01.549Z,4.20
2022-09-10T18:49:29.829Z,4.80
2022-09-10T18:51:57.592Z,4.13
2022-09-10T18:54:30.349Z,4.13
2022-09-10T18:56:58.219Z,4.60
2022-09-10T19:01:56.179Z,4.35
2022-09-10T19:04:28.394Z,4.50
2022-09-10T19:06:58.189Z,4.53
2022-09-10T19:09:30.753Z,4.53
2022-09-10T19:12:00.567Z,4.82
2022-09-10T19:14:34.604Z,5.03
2022-09-10T19:17:03.709Z,4.05
2022-09-10T19:19:36.373Z,4.85
2022-09-10T19:22:07.374Z,4.82
2022-09-10T19:24:54.056Z,4.00
2022-09-10T19:27:24.273Z,3.90
2022-09-10T19:29:51.966Z,4.57
2022-09-10T19:32:20.199Z,4.03
2022-09-10T19:34:51.517Z,4.90
2022-09-10T19:37:19.714Z,5.32
2022-09-10T19:39:47.717Z,4.57
2022-09-10T19:42:17.546Z,4.53
2022-09-10T19:44:44.483Z,4.18
2022-09-10T19:47:11.821Z,3.97
2022-09-10T19:49:39.215Z,5.20
2022-09-10T19:52:06.207Z,5.13
2022-09-10T19:54:33.545Z,5.03
2022-09-10T19:57:00.495Z,4.70
2022-09-10T19:59:28.259Z,5.55
2022-09-10T20:01:55.319Z,5.72
2022-09-10T20:04:22.328Z,5.28
2022-09-10T20:06:50.414Z,4.90
2022-09-10T20:09:17.570Z,4.38
2022-09-10T20:11:45.124Z,4.55
2022-09-10T20:14:14.616Z,5.80
2022-09-10T20:16:46.043Z,5.70
2022-09-10T20:19:22.018Z,5.72
2022-09-10T20:21:49.944Z,6.20
2022-09-10T20:26:46.490Z,6.10
2022-09-10T20:29:18.485Z,5.40
2022-09-10T20:31:48.632Z,6.30
2022-09-10T20:34:22.024Z,5.78
2022-09-10T20:36:51.738Z,6.43
2022-09-10T20:39:25.316Z,5.88
2022-09-10T20:41:53.431Z,5.57
2022-09-10T20:46:48.175Z,6.05
2022-09-10T20:49:16.867Z,6.80
2022-09-10T20:51:45.547Z,7.07
2022-09-10T20:54:19.146Z,6.82
2022-09-10T20:56:46.854Z,6.90
2022-09-10T20:59:19.288Z,7.32
2022-09-10T21:01:47.409Z,7.80
2022-09-10T21:04:15.165Z,9.35
2022-09-10T21:06:43.137Z,7.63
2022-09-10T21:11:37.816Z,6.55
2022-09-10T21:14:08.718Z,6.93
2022-09-10T21:16:41.483Z,6.35
2022-09-10T21:19:17.207Z,6.38
2022-09-10T21:21:48.914Z,5.88
2022-09-10T21:24:22.444Z,5.95
2022-09-10T21:26:50.504Z,6.75
2022-09-10T21:29:21.434Z,6.57
2022-09-10T21:31:50.722Z,6.45
2022-09-10T21:34:17.810Z,7.07
2022-09-10T21:36:45.250Z,7.10
2022-09-10T21:39:17.497Z,6.95
2022-09-10T21:41:50.460Z,8.60
2022-09-10T21:44:25.111Z,8.23
2022-09-10T21:46:53.249Z,8.05
2022-09-10T21:49:20.739Z,8.50
2022-09-10T21:51:48.535Z,7.47
2022-09-10T21:54:23.094Z,8.27
2022-09-10T21:56:52.301Z,7.80
2022-09-10T21:59:21.572Z,6.63
2022-09-10T22:01:49.995Z,6.55
2022-09-10T22:04:22.109Z,6.82
2022-09-10T22:06:49.814Z,7.18
2022-09-10T22:09:17.619Z,7.27
2022-09-10T22:11:51.952Z,7.80
2022-09-10T22:14:25.081Z,7.82
2022-09-10T22:16:53.472Z,8.48
2022-09-10T22:19:25.228Z,7.72
2022-09-10T22:21:54.394Z,9.27
2022-09-10T22:24:22.287Z,7.65
2022-09-10T22:26:50.382Z,9.05
2022-09-10T22:31:49.666Z,7.82
2022-09-10T22:34:18.984Z,8.20
2022-09-10T22:36:48.660Z,8.23
2022-09-10T22:39:22.653Z,8.43
2022-09-10T22:41:51.336Z,8.52
2022-09-10T22:44:19.925Z,9.00
2022-09-10T22:46:47.915Z,9.73
2022-09-10T22:51:43.462Z,10.55
2022-09-10T22:54:12.453Z,10.38
2022-09-10T22:56:40.151Z,10.45
2022-09-10T22:59:13.730Z,10.40
2022-09-10T23:01:43.557Z,9.63
2022-09-10T23:04:11.892Z,9.93
2022-09-10T23:06:39.728Z,9.80
2022-09-10T23:09:16.285Z,10.20
2022-09-10T23:11:45.303Z,10.48
2022-09-10T23:14:19.153Z,7.68
2022-09-10T23:16:50.986Z,9.45
2022-09-10T23:19:24.946Z,9.23
2022-09-10T23:21:55.280Z,8.32
2022-09-10T23:24:26.501Z,8.93
2022-09-10T23:26:54.081Z,9.05
2022-09-10T23:29:23.381Z,9.32
2022-09-10T23:31:53.638Z,10.52
2022-09-10T23:34:22.658Z,8.20
2022-09-10T23:36:50.138Z,9.10
2022-09-10T23:39:22.545Z,10.10
2022-09-10T23:41:57.682Z,9.80
2022-09-10T23:44:26.360Z,8.88
2022-09-10T23:46:53.664Z,8.95
2022-09-10T23:49:20.726Z,9.32
2022-09-10T23:51:49.056Z,9.48
2022-09-10T23:54:16.521Z,8.88
2022-09-10T23:56:44.357Z,9.35
2022-09-10T23:59:12.033Z,9.23
